Rome, Illinois
Current Conditions -  °F | °C
As of 6:15 PM on Sunday 28 Dec 2014 (Local Time) from KC75 Reporting Station
Clear Clear  
Wind Chill: 26°   Ceiling: Unl
Heat Index: 26°   Visibility: 10mi
Dew Point: 18°   Wind: 3mph
Humidity: 70%   Direction: 140°SE
Pressure: 30.2"   Gusts: NA
Location:  40.88°N, 89.5°W
Report Text: KC75 290015Z AUTO 14003KT 10SM CLR M03/M08 A3020 RMK AO2 T10321079
Loading
Personal Weather Stations






























Interactive Weather Map New forecast layout! Learn more

10-Day Weather Forecast

Advertisements
Track Severe Weather on mobile